首页
METAR-TAF:

METAR-TAF

机场 :

威尔克斯-巴里 / 斯克蘭頓, 宾夕法尼亚州, 美国

纬度: 41-20-20N, 经度: 075-43-36W, 海拔: 293米

当前天气观测

该预报发布于25分钟前的11:54 UTC
风速4节,风向
温度 -4°C
湿度 74%
气压 1023 hPa
能見度: 16.1公里
天空无云

METAR: KAVP 151154Z 18004KT 10SM CLR M04/M08 A3021 RMK AO2 SLP238 T10441083 11006 21044 53003 $

时间: 07:19 (12:19 UTC)

预报

该预报发布于52分钟前的11:27 UTC
预报有效从15日的 11点(UTC)到 16日的 12点(UTC)
风速3节,风向多变
能見度: 10公里
天空无云
从 16日的 0600点(UTC)
风速9节,风向
能見度: 10公里
散云层高于3500英尺
从 16日的 1000点(UTC)
风速节,风向
能見度: 10公里
天空无云

TAF: KAVP 151127Z 1511/1612 VRB03KT P6SM SKC FM160600 35009KT P6SM SCT035 FM161000 00000KT P6SM SKC

超过4000个机场的气象观测和天气预报(METAR&TAF报告)。

可查询的气象台以黄色和红色小点在地图上表示。

将鼠标移到小点上方,可查看气象台名称。

然后点击查看天气观测和预报。

如需切换地图:点击带黑十字的绿色按钮放大地图;点击带横线的绿色按钮缩小地图;或者点击绿色箭头查看邻近地区的地图。


METAR-TAF: